Terminal Aerodrome Forecast
Issued by NWS

Home | Current Version | Previous Version | Text Only | Print | Product List | Glossary Off
Versions: 1 2 3 4 5 6 7 8 9 10 11 12

489
FTUS42 KMHX 260549
TAFOAJ
TAF
KOAJ 260549Z 2606/2706 21006KT P6SM SCT250
     FM261000 22004KT 5SM BR SCT250
     FM261200 22010G15KT P6SM SCT050
      AMD LTD TO CLD VIS AND WIND=

USA.gov is the U.S. government's official web portal to all federal, state and local government web resources and services.